Santo Domingo de Guzmán, Dominican Republic

8:01 AM AST en Abril 23, 2017 (GMT -0400)
Cabarete Bozo Beach | | Change Station

Alt 0 ft 18.47 °N, 69.90 °W | Updated 26 seconds ago

Muy nublado
Muy nublado
76.9 ° F
Sensación térmica 78 ° F
N
7.0
Viento Variable Viento desde ENE

Hoy
Alta -- | Baja -- ° F
--% Posibilidad de precipitaciones
Ayer
Alta -- | Baja -- ° F
Precip. -- pul
Presión 29.92 pul
Visibilidad 5.0 Millas
Nubes Muy nublado 1400 ft
Índice de calor 78 ° F
Punto de rocío 71 ° F
Humedad 81%
Precipitaciones 0.03 pul
Espesor de la nieve No disponible.
6:17 AM 6:58 PM
Creciente menguante, 12% visible
METAR MDJB 231200Z 00000KT 8000 VCSH BKN014 0VC070 23/22 Q1013
Presión 29.92 pul
Visibilidad 5.0 Millas
Nubes Muy nublado 1400 ft
Índice de calor 78 ° F
Punto de rocío 71 ° F
Humedad 81%
Precipitaciones 0.03 pul
Espesor de la nieve No disponible.
6:17 AM 6:58 PM
Creciente menguante, 12% visible
METAR MDJB 231200Z 00000KT 8000 VCSH BKN014 0VC070 23/22 Q1013

Get Severe Weather Alerts

Thanks for signing up!

Be on the lookout for a verification email in your inbox.

You'll start receiving the daily forecast at 8 AM.

×

10-Day Weather Forecast

No radar image for this location.
×

Almanac

Astronomía

Apr. 23, 2017 Salida Puesta
Hora real
Crepúsculo civil
Crepúsculo náutico
Crepúsculo astronómico
Luna
Horas de luz
Horas de luz
Tomorrow will be .
, % of the Moon is Illuminated

Extremos de hoy

Máximos del país Bajas del país

Community

WunderPhotos

WunderBlog® & News

Nearby

Calidad del aire

  Calidad del aire Índice AQ Contaminante
Not available.

Grosos de nieve

Estación Profundido Altura

Actividad de terremotos

Ciudad Distance Mag. Tiempo y dato
Magnitud mínima muestra es 2,5.

Temperaturas de aguas costeras

Lugar Temperatura

Stations

Estaciones meteorológicas cercanas

Ubicación de la estación Temp. Vientos helados Punto de rocío Humedad Viento Precip. Alt Actualizado Tipo